createdAt,value
2023-02-15T00:02:06.932Z,1.15
2023-02-15T00:04:48.092Z,1.52
2023-02-15T00:07:20.059Z,1.30
2023-02-15T00:09:49.567Z,1.38
2023-02-15T00:12:18.818Z,1.40
2023-02-15T00:14:49.122Z,1.63
2023-02-15T00:17:18.387Z,1.08
2023-02-15T00:19:47.534Z,1.65
2023-02-15T00:22:16.750Z,1.10
2023-02-15T00:24:45.888Z,1.48
2023-02-15T00:27:15.133Z,1.33
2023-02-15T00:29:44.426Z,1.55
2023-02-15T00:32:13.570Z,1.15
2023-02-15T00:34:44.410Z,1.17
2023-02-15T00:37:13.652Z,1.10
2023-02-15T00:39:42.809Z,1.65
2023-02-15T00:42:11.995Z,1.45
2023-02-15T00:44:41.314Z,1.50
2023-02-15T00:47:10.478Z,1.83
2023-02-15T00:49:39.656Z,1.23
2023-02-15T00:52:08.837Z,1.83
2023-02-15T00:54:39.778Z,1.60
2023-02-15T00:57:09.104Z,1.80
2023-02-15T00:59:38.383Z,1.30
2023-02-15T01:02:07.701Z,1.42
2023-02-15T01:04:37.013Z,1.35
2023-02-15T01:07:06.265Z,1.17
2023-02-15T01:09:36.147Z,1.67
2023-02-15T01:12:06.081Z,1.58
2023-02-15T01:14:35.282Z,1.52
2023-02-15T01:17:04.480Z,1.50
2023-02-15T01:19:37.384Z,1.40
2023-02-15T01:22:06.612Z,2.00
2023-02-15T01:24:38.342Z,1.40
2023-02-15T01:27:07.529Z,1.35
2023-02-15T01:29:36.877Z,2.00
2023-02-15T01:32:06.230Z,1.75
2023-02-15T01:34:35.615Z,1.77
2023-02-15T01:37:04.791Z,1.25
2023-02-15T01:39:34.026Z,1.60
2023-02-15T01:42:03.587Z,1.77
2023-02-15T01:44:54.388Z,1.65
2023-02-15T01:47:46.595Z,1.48
2023-02-15T01:50:25.152Z,1.42
2023-02-15T01:53:43.763Z,1.63
2023-02-15T01:56:21.536Z,1.58
2023-02-15T01:58:58.963Z,1.48
2023-02-15T02:01:29.385Z,1.98
2023-02-15T02:04:12.947Z,1.67
2023-02-15T02:06:42.676Z,1.75
2023-02-15T02:09:13.744Z,1.67
2023-02-15T02:11:48.691Z,1.92
2023-02-15T02:14:18.951Z,1.52
2023-02-15T02:17:23.117Z,1.85
2023-02-15T02:20:26.391Z,1.48
2023-02-15T02:22:55.572Z,1.48
2023-02-15T02:25:51.787Z,1.63
2023-02-15T02:28:34.416Z,1.17
2023-02-15T02:31:35.773Z,1.38
2023-02-15T02:34:42.584Z,1.40
2023-02-15T02:37:31.636Z,1.40
2023-02-15T02:40:35.381Z,1.92
2023-02-15T02:43:50.212Z,1.25
2023-02-15T02:46:45.322Z,2.05
2023-02-15T02:49:14.769Z,1.67
2023-02-15T02:51:44.138Z,2.25
2023-02-15T02:54:13.466Z,1.73
2023-02-15T02:56:50.018Z,1.70
2023-02-15T02:59:28.590Z,1.90
2023-02-15T03:02:08.292Z,1.50
2023-02-15T03:04:43.508Z,1.95
2023-02-15T03:07:23.060Z,1.75
2023-02-15T03:09:57.910Z,2.08
2023-02-15T03:12:40.347Z,1.65
2023-02-15T03:15:20.263Z,1.30
2023-02-15T03:17:58.621Z,1.13
2023-02-15T03:20:37.793Z,1.45
2023-02-15T03:23:20.854Z,1.65
2023-02-15T03:26:06.135Z,1.55
2023-02-15T03:28:46.299Z,1.95
2023-02-15T03:31:19.463Z,1.73
2023-02-15T03:34:01.074Z,1.60
2023-02-15T03:37:18.866Z,1.33
2023-02-15T03:40:20.106Z,1.27
2023-02-15T03:43:02.106Z,1.50
2023-02-15T03:45:35.597Z,1.40
2023-02-15T03:48:07.387Z,1.33
2023-02-15T03:50:58.255Z,2.00
2023-02-15T03:53:28.209Z,1.85
2023-02-15T03:55:57.712Z,1.30
2023-02-15T03:58:45.214Z,1.80
2023-02-15T04:01:53.963Z,2.17
2023-02-15T04:06:58.635Z,1.75
2023-02-15T04:09:46.650Z,2.17
2023-02-15T04:12:15.996Z,1.40
2023-02-15T04:15:03.902Z,1.95
2023-02-15T04:17:33.746Z,1.60
2023-02-15T04:20:21.242Z,1.75
2023-02-15T04:25:38.134Z,1.90
2023-02-15T04:28:08.780Z,1.40
2023-02-15T04:30:38.069Z,1.52
2023-02-15T04:33:07.273Z,2.05
2023-02-15T04:35:36.490Z,1.63
2023-02-15T04:38:05.867Z,1.73
2023-02-15T04:40:35.063Z,1.20
2023-02-15T04:43:04.284Z,1.30
2023-02-15T04:45:33.636Z,1.92
2023-02-15T04:48:02.981Z,1.52
2023-02-15T04:50:32.184Z,1.60
2023-02-15T04:53:01.471Z,1.92
2023-02-15T04:55:30.651Z,1.83
2023-02-15T04:57:59.824Z,1.75
2023-02-15T05:00:29.272Z,1.58
2023-02-15T05:02:58.479Z,1.30
2023-02-15T05:05:27.707Z,1.15
2023-02-15T05:07:57.116Z,1.65
2023-02-15T05:10:26.353Z,1.27
2023-02-15T05:12:55.633Z,1.65
2023-02-15T05:15:24.886Z,1.20
2023-02-15T05:17:54.095Z,1.65
2023-02-15T05:20:23.407Z,1.67
2023-02-15T05:22:55.847Z,1.55
2023-02-15T05:25:43.536Z,1.60
2023-02-15T05:28:21.754Z,1.42
2023-02-15T05:31:17.844Z,1.77
2023-02-15T05:33:47.535Z,1.25
2023-02-15T05:36:16.862Z,1.48
2023-02-15T05:38:46.309Z,1.55
2023-02-15T05:41:15.915Z,1.45
2023-02-15T05:43:45.118Z,2.00
2023-02-15T05:46:14.472Z,1.85
2023-02-15T05:48:43.962Z,1.70
2023-02-15T05:51:15.061Z,1.50
2023-02-15T05:53:44.420Z,1.83
2023-02-15T05:56:14.472Z,2.03
2023-02-15T05:58:43.831Z,1.88
2023-02-15T06:01:18.190Z,1.50
2023-02-15T06:03:47.568Z,1.70
2023-02-15T06:06:17.635Z,1.48
2023-02-15T06:08:47.014Z,1.70
2023-02-15T06:11:16.542Z,2.03
2023-02-15T06:13:46.230Z,1.40
2023-02-15T06:16:16.982Z,1.70
2023-02-15T06:18:46.372Z,2.15
2023-02-15T06:21:15.587Z,1.88
2023-02-15T06:23:44.910Z,1.45
2023-02-15T06:26:14.474Z,1.60
2023-02-15T06:28:43.725Z,1.67
2023-02-15T06:31:13.128Z,2.08
2023-02-15T06:33:42.496Z,1.40
2023-02-15T06:36:11.870Z,1.65
2023-02-15T06:38:41.189Z,1.77
2023-02-15T06:41:10.442Z,1.90
2023-02-15T06:43:41.034Z,1.42
2023-02-15T06:46:10.503Z,1.40
2023-02-15T06:48:39.730Z,1.83
2023-02-15T06:51:08.994Z,1.67
2023-02-15T06:53:38.262Z,1.50
2023-02-15T06:56:10.188Z,1.95
2023-02-15T06:58:43.664Z,1.20
2023-02-15T07:01:13.404Z,1.83
2023-02-15T07:03:42.852Z,1.67
2023-02-15T07:06:12.527Z,1.40
2023-02-15T07:08:41.802Z,1.13
2023-02-15T07:11:29.471Z,1.45
2023-02-15T07:16:27.864Z,1.98
2023-02-15T07:18:57.170Z,1.60
2023-02-15T07:21:26.400Z,1.17
2023-02-15T07:24:01.146Z,1.45
2023-02-15T07:26:33.196Z,1.27
2023-02-15T07:29:02.566Z,1.33
2023-02-15T07:31:31.798Z,1.50
2023-02-15T07:34:01.055Z,1.15
2023-02-15T07:36:30.296Z,1.27
2023-02-15T07:38:59.474Z,1.48
2023-02-15T07:41:28.689Z,1.80
2023-02-15T07:43:57.888Z,1.40
2023-02-15T07:46:27.216Z,1.50
2023-02-15T07:48:56.429Z,1.40
2023-02-15T07:51:25.597Z,1.40
2023-02-15T07:53:54.934Z,1.10
2023-02-15T07:56:24.279Z,0.93
2023-02-15T07:58:53.677Z,1.30
2023-02-15T08:01:36.379Z,1.42
2023-02-15T08:04:07.808Z,1.52
2023-02-15T08:06:37.680Z,1.05
2023-02-15T08:09:09.706Z,1.20
2023-02-15T08:11:40.850Z,1.40
2023-02-15T08:14:15.483Z,1.30
2023-02-15T08:16:47.080Z,1.05
2023-02-15T08:19:16.306Z,1.30
2023-02-15T08:21:49.775Z,0.93
2023-02-15T08:24:22.895Z,0.90
2023-02-15T08:26:53.326Z,1.10
2023-02-15T08:29:26.583Z,1.33
2023-02-15T08:32:10.215Z,0.85
2023-02-15T08:34:42.808Z,1.08
2023-02-15T08:37:12.143Z,1.20
2023-02-15T08:39:42.800Z,1.00
2023-02-15T08:42:12.022Z,0.95
2023-02-15T08:44:41.277Z,0.98
2023-02-15T08:47:10.461Z,1.20
2023-02-15T08:49:39.677Z,1.33
2023-02-15T08:52:08.882Z,1.02
2023-02-15T08:54:38.171Z,1.00
2023-02-15T08:57:08.049Z,1.05
2023-02-15T08:59:37.457Z,1.40
2023-02-15T09:02:06.794Z,1.00
2023-02-15T09:04:36.244Z,0.93
2023-02-15T09:07:05.525Z,1.10
2023-02-15T09:09:34.796Z,1.05
2023-02-15T09:12:04.149Z,0.93
2023-02-15T09:14:34.433Z,1.00
2023-02-15T09:17:03.694Z,0.85
2023-02-15T09:19:32.927Z,1.23
2023-02-15T09:22:02.334Z,0.98
2023-02-15T09:24:34.814Z,1.00
2023-02-15T09:27:04.254Z,1.00
2023-02-15T09:29:33.463Z,0.93
2023-02-15T09:32:02.773Z,0.93
2023-02-15T09:34:34.110Z,0.80
2023-02-15T09:37:07.508Z,0.80
2023-02-15T09:39:42.355Z,1.00
2023-02-15T09:42:33.984Z,1.00
2023-02-15T09:45:08.964Z,1.02
2023-02-15T09:48:30.669Z,1.17
2023-02-15T09:51:29.702Z,1.10
2023-02-15T09:54:13.139Z,0.88
2023-02-15T09:57:01.716Z,0.82
2023-02-15T10:00:01.519Z,0.80
2023-02-15T10:03:12.898Z,0.80
2023-02-15T10:05:56.826Z,0.90
2023-02-15T10:09:19.082Z,1.00
2023-02-15T10:12:19.416Z,0.88
2023-02-15T10:15:12.606Z,0.73
2023-02-15T10:18:33.762Z,0.73
2023-02-15T10:21:22.202Z,0.90
2023-02-15T10:24:22.662Z,0.88
2023-02-15T10:26:56.020Z,0.80
2023-02-15T10:29:38.588Z,0.70
2023-02-15T10:32:27.324Z,0.68
2023-02-15T10:36:05.274Z,0.82
2023-02-15T10:39:08.755Z,0.80
2023-02-15T10:42:12.365Z,0.80
2023-02-15T10:45:05.653Z,0.80
2023-02-15T10:48:01.049Z,0.77
2023-02-15T10:50:56.469Z,0.68
2023-02-15T10:53:53.146Z,0.80
2023-02-15T10:56:33.901Z,0.60
2023-02-15T10:59:29.570Z,0.80
2023-02-15T11:02:20.204Z,0.60
2023-02-15T11:04:58.509Z,0.60
2023-02-15T11:07:41.673Z,0.88
2023-02-15T11:10:29.492Z,0.63
2023-02-15T11:13:06.818Z,0.70
2023-02-15T11:15:45.762Z,0.70
2023-02-15T11:18:48.918Z,0.60
2023-02-15T11:21:21.141Z,0.52
2023-02-15T11:23:51.047Z,0.60
2023-02-15T11:26:35.024Z,0.60
2023-02-15T11:29:29.087Z,0.75
2023-02-15T11:32:13.684Z,0.52
2023-02-15T11:34:59.424Z,0.70
2023-02-15T11:37:47.158Z,0.63
2023-02-15T11:43:07.918Z,0.60
2023-02-15T11:45:37.384Z,0.80
2023-02-15T11:48:13.311Z,0.57
2023-02-15T11:50:44.461Z,0.60
2023-02-15T11:53:17.250Z,0.63
2023-02-15T11:55:51.844Z,0.50
2023-02-15T11:58:43.752Z,0.60
2023-02-15T12:01:38.007Z,0.50
2023-02-15T12:04:21.798Z,0.40
2023-02-15T12:07:03.518Z,0.50
2023-02-15T12:10:18.178Z,0.60
2023-02-15T12:12:47.901Z,0.57
2023-02-15T12:15:33.299Z,0.50
2023-02-15T12:18:03.167Z,0.40
2023-02-15T12:20:34.673Z,0.60
2023-02-15T12:23:18.449Z,0.60
2023-02-15T12:25:57.634Z,0.55
2023-02-15T12:28:45.392Z,0.50
2023-02-15T12:31:28.425Z,0.40
2023-02-15T12:34:02.822Z,0.60
2023-02-15T12:36:45.546Z,0.57
2023-02-15T12:39:14.745Z,0.50
2023-02-15T12:41:55.963Z,0.50
2023-02-15T12:44:32.477Z,0.40
2023-02-15T12:47:09.237Z,0.50
2023-02-15T12:49:39.610Z,0.50
2023-02-15T12:52:23.409Z,0.47
2023-02-15T12:54:53.051Z,0.57
2023-02-15T12:57:35.207Z,0.40
2023-02-15T13:00:28.643Z,0.50
2023-02-15T13:03:00.835Z,0.50
2023-02-15T13:05:39.710Z,0.50
2023-02-15T13:08:21.699Z,0.43
2023-02-15T13:11:13.528Z,0.40
2023-02-15T13:14:03.733Z,0.50
2023-02-15T13:16:41.101Z,0.50
2023-02-15T13:19:22.767Z,0.50
2023-02-15T13:21:54.220Z,0.40
2023-02-15T13:24:39.185Z,0.40
2023-02-15T13:27:19.347Z,0.38
2023-02-15T13:29:58.374Z,0.40
2023-02-15T13:32:34.834Z,0.50
2023-02-15T13:35:09.667Z,0.30
2023-02-15T13:38:09.918Z,0.40
2023-02-15T13:40:54.471Z,0.40
2023-02-15T13:43:51.585Z,0.40
2023-02-15T13:46:51.206Z,0.50
2023-02-15T13:49:42.917Z,0.50
2023-02-15T13:52:29.109Z,0.50
2023-02-15T13:55:24.811Z,0.50
2023-02-15T13:58:15.500Z,0.40
2023-02-15T14:01:01.674Z,0.40
2023-02-15T14:04:16.002Z,0.50
2023-02-15T14:07:22.718Z,0.40
2023-02-15T14:10:16.802Z,0.50
2023-02-15T14:13:04.237Z,0.40
2023-02-15T14:15:50.085Z,0.43
2023-02-15T14:18:27.724Z,0.50
2023-02-15T14:21:25.167Z,0.40
2023-02-15T14:24:00.112Z,0.40
2023-02-15T14:26:59.557Z,0.50
2023-02-15T14:30:00.915Z,0.40
2023-02-15T14:33:04.190Z,0.50
2023-02-15T14:35:34.221Z,0.43
2023-02-15T14:38:06.454Z,0.50
2023-02-15T14:41:04.902Z,0.47
2023-02-15T14:44:05.353Z,0.47
2023-02-15T14:47:00.941Z,0.50
2023-02-15T14:49:48.023Z,0.50
2023-02-15T14:52:17.283Z,0.50
2023-02-15T14:54:46.382Z,0.40
2023-02-15T14:57:15.502Z,0.50
2023-02-15T15:00:00.560Z,0.40
2023-02-15T15:02:44.802Z,0.50
2023-02-15T15:05:35.293Z,0.40
2023-02-15T15:08:07.028Z,0.40
2023-02-15T15:10:45.931Z,0.50
2023-02-15T15:13:33.477Z,0.40
2023-02-15T15:16:37.005Z,0.60
2023-02-15T15:19:12.474Z,0.50
2023-02-15T15:21:47.767Z,0.40
2023-02-15T15:24:39.272Z,0.50
2023-02-15T15:27:51.312Z,0.50
2023-02-15T15:30:23.577Z,0.50
2023-02-15T15:33:03.274Z,0.50
2023-02-15T15:36:15.702Z,0.50
2023-02-15T15:39:38.185Z,0.50
2023-02-15T15:42:36.316Z,0.52
2023-02-15T15:45:48.666Z,0.50
2023-02-15T15:48:34.526Z,0.43
2023-02-15T15:51:15.652Z,0.60
2023-02-15T15:53:51.437Z,0.50
2023-02-15T15:56:29.106Z,0.55
2023-02-15T15:59:03.967Z,0.50
2023-02-15T16:01:45.436Z,0.70
2023-02-15T16:04:32.452Z,0.60
2023-02-15T16:07:19.968Z,0.50
2023-02-15T16:12:34.123Z,0.60
2023-02-15T16:15:26.756Z,0.50
2023-02-15T16:17:59.570Z,0.57
2023-02-15T16:20:38.304Z,0.70
2023-02-15T16:23:32.243Z,0.60
2023-02-15T16:26:17.023Z,0.70
2023-02-15T16:28:55.040Z,0.70
2023-02-15T16:31:24.444Z,0.50
2023-02-15T16:33:56.937Z,0.70
2023-02-15T16:36:30.272Z,0.60
2023-02-15T16:38:59.421Z,0.60
2023-02-15T16:41:31.849Z,0.55
2023-02-15T16:44:18.827Z,0.60
2023-02-15T16:46:54.991Z,0.80
2023-02-15T16:49:28.676Z,0.70
2023-02-15T16:52:02.131Z,0.70
2023-02-15T16:54:32.940Z,0.70
2023-02-15T16:57:03.101Z,0.60
2023-02-15T16:59:48.085Z,0.80
2023-02-15T17:02:53.235Z,0.60
2023-02-15T17:05:21.008Z,0.82
2023-02-15T17:08:32.156Z,0.73
2023-02-15T17:11:18.828Z,0.60
2023-02-15T17:14:06.633Z,0.65
2023-02-15T17:16:51.833Z,0.70
2023-02-15T17:19:25.558Z,0.77
2023-02-15T17:21:59.912Z,1.00
2023-02-15T17:24:31.910Z,0.90
2023-02-15T17:27:08.131Z,0.80
2023-02-15T17:29:41.696Z,0.90
2023-02-15T17:32:23.354Z,0.95
2023-02-15T17:35:01.249Z,0.75
2023-02-15T17:37:49.797Z,0.70
2023-02-15T17:40:34.956Z,0.98
2023-02-15T17:43:04.583Z,0.90
2023-02-15T17:46:02.336Z,0.70
2023-02-15T17:48:42.071Z,0.90
2023-02-15T17:51:15.190Z,1.00
2023-02-15T17:54:04.094Z,0.82
2023-02-15T17:56:35.570Z,0.88
2023-02-15T17:59:08.294Z,0.90
2023-02-15T18:02:04.950Z,0.80
2023-02-15T18:04:56.051Z,0.70
2023-02-15T18:07:43.824Z,0.80
2023-02-15T18:13:03.654Z,1.00
2023-02-15T18:15:32.954Z,1.20
2023-02-15T18:18:02.812Z,1.13
2023-02-15T18:20:37.237Z,1.00
2023-02-15T18:23:15.089Z,1.20
2023-02-15T18:25:44.329Z,1.10
2023-02-15T18:28:13.540Z,1.20
2023-02-15T18:30:43.310Z,1.10
2023-02-15T18:33:39.420Z,0.80
2023-02-15T18:36:32.623Z,0.80
2023-02-15T18:39:08.477Z,1.17
2023-02-15T18:41:38.146Z,0.77
2023-02-15T18:44:13.539Z,1.05
2023-02-15T18:46:42.975Z,1.02
2023-02-15T18:49:12.294Z,1.00
2023-02-15T18:51:41.790Z,1.15
2023-02-15T18:54:24.049Z,0.88
2023-02-15T18:57:00.449Z,1.13
2023-02-15T18:59:31.269Z,1.10
2023-02-15T19:02:01.261Z,0.98
2023-02-15T19:04:32.395Z,0.85
2023-02-15T19:07:01.710Z,1.00
2023-02-15T19:09:32.618Z,1.08
2023-02-15T19:12:03.110Z,0.98
2023-02-15T19:14:33.386Z,1.05
2023-02-15T19:17:02.680Z,1.00
2023-02-15T19:19:32.032Z,1.08
2023-02-15T19:22:02.523Z,1.25
2023-02-15T19:24:40.451Z,1.00
2023-02-15T19:27:37.198Z,1.05
2023-02-15T19:30:19.830Z,1.17
2023-02-15T19:32:49.206Z,1.08
2023-02-15T19:35:23.473Z,1.27
2023-02-15T19:37:59.448Z,1.15
2023-02-15T19:40:35.379Z,1.23
2023-02-15T19:43:15.441Z,1.20
2023-02-15T19:45:45.542Z,0.90
2023-02-15T19:48:14.992Z,0.82
2023-02-15T19:50:49.049Z,1.50
2023-02-15T19:53:29.085Z,1.52
2023-02-15T19:55:58.344Z,1.50
2023-02-15T19:58:27.567Z,1.10
2023-02-15T20:00:56.922Z,1.10
2023-02-15T20:03:26.169Z,1.20
2023-02-15T20:05:55.470Z,1.08
2023-02-15T20:08:24.896Z,1.23
2023-02-15T20:10:54.146Z,1.30
2023-02-15T20:13:23.745Z,1.25
2023-02-15T20:15:53.237Z,1.30
2023-02-15T20:18:22.923Z,1.00
2023-02-15T20:20:55.045Z,1.10
2023-02-15T20:23:30.850Z,1.00
2023-02-15T20:26:12.645Z,1.17
2023-02-15T20:28:41.850Z,1.08
2023-02-15T20:31:20.333Z,1.00
2023-02-15T20:33:49.914Z,1.20
2023-02-15T20:36:22.429Z,1.05
2023-02-15T20:38:51.866Z,1.10
2023-02-15T20:41:40.848Z,1.20
2023-02-15T20:44:19.120Z,1.30
2023-02-15T20:46:52.401Z,1.23
2023-02-15T20:49:26.781Z,1.20
2023-02-15T20:51:57.547Z,1.25
2023-02-15T20:54:33.623Z,1.52
2023-02-15T20:57:05.962Z,1.20
2023-02-15T20:59:35.390Z,1.33
2023-02-15T21:02:24.963Z,1.17
2023-02-15T21:04:55.522Z,1.40
2023-02-15T21:07:24.816Z,1.20
2023-02-15T21:09:54.326Z,1.20
2023-02-15T21:12:24.787Z,1.00
2023-02-15T21:14:54.029Z,1.40
2023-02-15T21:17:23.574Z,1.30
2023-02-15T21:19:52.993Z,1.17
2023-02-15T21:22:23.156Z,1.13
2023-02-15T21:24:55.056Z,1.08
2023-02-15T21:27:24.451Z,1.38
2023-02-15T21:29:53.671Z,1.27
2023-02-15T21:32:23.004Z,1.50
2023-02-15T21:34:52.234Z,1.42
2023-02-15T21:37:32.848Z,1.38
2023-02-15T21:40:03.078Z,1.33
2023-02-15T21:42:51.381Z,1.23
2023-02-15T21:45:39.161Z,1.42
2023-02-15T21:48:08.894Z,1.20
2023-02-15T21:50:56.978Z,1.10
2023-02-15T21:53:33.737Z,1.17
2023-02-15T21:56:06.576Z,1.45
2023-02-15T21:58:37.710Z,1.35
2023-02-15T22:01:07.590Z,1.38
2023-02-15T22:03:39.571Z,1.40
2023-02-15T22:06:13.830Z,1.30
2023-02-15T22:08:43.447Z,1.55
2023-02-15T22:11:19.679Z,1.20
2023-02-15T22:13:50.804Z,1.80
2023-02-15T22:16:23.032Z,1.55
2023-02-15T22:18:52.472Z,1.25
2023-02-15T22:21:22.315Z,1.30
2023-02-15T22:23:51.544Z,1.27
2023-02-15T22:26:25.403Z,1.48
2023-02-15T22:28:56.779Z,1.10
2023-02-15T22:31:27.718Z,1.50
2023-02-15T22:33:56.956Z,1.27
2023-02-15T22:36:30.977Z,1.88
2023-02-15T22:39:00.196Z,1.65
2023-02-15T22:41:31.618Z,1.50
2023-02-15T22:44:00.973Z,1.70
2023-02-15T22:46:30.225Z,1.50
2023-02-15T22:48:59.476Z,1.40
2023-02-15T22:51:29.856Z,1.60
2023-02-15T22:53:59.138Z,1.50
2023-02-15T22:57:00.843Z,1.20
2023-02-15T22:59:34.231Z,1.40
2023-02-15T23:02:06.471Z,1.42
2023-02-15T23:04:35.805Z,1.45
2023-02-15T23:07:15.295Z,1.42
2023-02-15T23:09:45.969Z,1.17
2023-02-15T23:12:27.825Z,1.63
2023-02-15T23:14:58.114Z,1.42
2023-02-15T23:17:27.330Z,1.20
2023-02-15T23:19:56.616Z,1.48
2023-02-15T23:22:25.852Z,1.42
2023-02-15T23:24:55.036Z,1.45
2023-02-15T23:27:42.928Z,1.48
2023-02-15T23:30:15.000Z,1.60
2023-02-15T23:32:44.383Z,1.10
2023-02-15T23:35:16.802Z,1.02
2023-02-15T23:37:46.264Z,1.42
2023-02-15T23:40:37.943Z,1.70
2023-02-15T23:43:13.738Z,1.65
2023-02-15T23:45:43.018Z,1.50
2023-02-15T23:48:31.629Z,1.00
2023-02-15T23:51:02.111Z,1.10
2023-02-15T23:53:32.568Z,1.27
2023-02-15T23:56:02.444Z,1.50
2023-02-15T23:58:40.477Z,1.38
